sensor_id;sensor_type;location;lat;lon;timestamp;P1;durP1;ratioP1;P2;durP2;ratioP2
66751;SDS011;53663;42.676;23.238;2022-11-18T00:01:44;19.63;;;11.27;;
66751;SDS011;53663;42.676;23.238;2022-11-18T00:04:10;19.98;;;10.30;;
66751;SDS011;53663;42.676;23.238;2022-11-18T00:06:35;17.80;;;10.80;;
66751;SDS011;53663;42.676;23.238;2022-11-18T00:09:01;19.65;;;10.15;;
66751;SDS011;53663;42.676;23.238;2022-11-18T00:11:27;17.70;;;11.32;;
66751;SDS011;53663;42.676;23.238;2022-11-18T00:14:12;19.73;;;11.90;;
66751;SDS011;53663;42.676;23.238;2022-11-18T00:16:47;18.95;;;11.50;;
66751;SDS011;53663;42.676;23.238;2022-11-18T00:19:14;19.50;;;10.70;;
66751;SDS011;53663;42.676;23.238;2022-11-18T00:21:40;17.85;;;10.65;;
66751;SDS011;53663;42.676;23.238;2022-11-18T00:24:05;17.17;;;10.30;;
66751;SDS011;53663;42.676;23.238;2022-11-18T00:26:31;25.05;;;11.80;;
66751;SDS011;53663;42.676;23.238;2022-11-18T00:28:57;22.00;;;11.52;;
66751;SDS011;53663;42.676;23.238;2022-11-18T00:31:22;17.77;;;10.57;;
66751;SDS011;53663;42.676;23.238;2022-11-18T00:33:48;18.48;;;9.98;;
66751;SDS011;53663;42.676;23.238;2022-11-18T00:36:13;19.70;;;10.90;;
66751;SDS011;53663;42.676;23.238;2022-11-18T00:38:39;22.17;;;9.82;;
66751;SDS011;53663;42.676;23.238;2022-11-18T00:41:09;14.55;;;9.15;;
66751;SDS011;53663;42.676;23.238;2022-11-18T00:43:36;16.35;;;8.63;;
66751;SDS011;53663;42.676;23.238;2022-11-18T00:46:02;13.63;;;8.25;;
66751;SDS011;53663;42.676;23.238;2022-11-18T00:48:28;17.25;;;9.65;;
66751;SDS011;53663;42.676;23.238;2022-11-18T00:50:55;15.63;;;8.77;;
66751;SDS011;53663;42.676;23.238;2022-11-18T00:53:22;17.42;;;9.68;;
66751;SDS011;53663;42.676;23.238;2022-11-18T00:55:50;15.68;;;9.68;;
66751;SDS011;53663;42.676;23.238;2022-11-18T00:58:16;15.13;;;9.50;;
66751;SDS011;53663;42.676;23.238;2022-11-18T01:00:42;17.25;;;9.75;;
66751;SDS011;53663;42.676;23.238;2022-11-18T01:03:09;15.15;;;9.98;;
66751;SDS011;53663;42.676;23.238;2022-11-18T01:05:36;15.27;;;9.93;;
66751;SDS011;53663;42.676;23.238;2022-11-18T01:08:03;16.33;;;9.75;;
66751;SDS011;53663;42.676;23.238;2022-11-18T01:10:29;15.90;;;9.02;;
66751;SDS011;53663;42.676;23.238;2022-11-18T01:12:55;17.42;;;9.35;;
66751;SDS011;53663;42.676;23.238;2022-11-18T01:15:40;21.90;;;10.63;;
66751;SDS011;53663;42.676;23.238;2022-11-18T01:18:07;17.48;;;10.45;;
66751;SDS011;53663;42.676;23.238;2022-11-18T01:20:33;15.13;;;8.98;;
66751;SDS011;53663;42.676;23.238;2022-11-18T01:22:59;15.23;;;9.50;;
66751;SDS011;53663;42.676;23.238;2022-11-18T01:25:25;18.98;;;10.20;;
66751;SDS011;53663;42.676;23.238;2022-11-18T01:27:50;13.70;;;9.30;;
66751;SDS011;53663;42.676;23.238;2022-11-18T01:30:16;15.02;;;9.60;;
66751;SDS011;53663;42.676;23.238;2022-11-18T01:32:42;16.20;;;9.00;;
66751;SDS011;53663;42.676;23.238;2022-11-18T01:35:08;15.63;;;8.88;;
66751;SDS011;53663;42.676;23.238;2022-11-18T01:37:34;16.55;;;9.25;;
66751;SDS011;53663;42.676;23.238;2022-11-18T01:40:00;17.25;;;9.07;;
66751;SDS011;53663;42.676;23.238;2022-11-18T01:42:26;18.38;;;9.95;;
66751;SDS011;53663;42.676;23.238;2022-11-18T01:47:20;16.13;;;9.98;;
66751;SDS011;53663;42.676;23.238;2022-11-18T01:49:46;20.30;;;9.73;;
66751;SDS011;53663;42.676;23.238;2022-11-18T01:52:12;16.02;;;9.35;;
66751;SDS011;53663;42.676;23.238;2022-11-18T01:54:39;16.20;;;10.18;;
66751;SDS011;53663;42.676;23.238;2022-11-18T01:57:10;14.85;;;9.90;;
66751;SDS011;53663;42.676;23.238;2022-11-18T01:59:38;14.93;;;8.70;;
66751;SDS011;53663;42.676;23.238;2022-11-18T02:02:07;16.00;;;9.30;;
66751;SDS011;53663;42.676;23.238;2022-11-18T02:04:36;18.88;;;8.63;;
66751;SDS011;53663;42.676;23.238;2022-11-18T02:07:04;15.80;;;9.15;;
66751;SDS011;53663;42.676;23.238;2022-11-18T02:09:31;16.20;;;9.95;;
66751;SDS011;53663;42.676;23.238;2022-11-18T02:11:57;15.82;;;10.05;;
66751;SDS011;53663;42.676;23.238;2022-11-18T02:14:27;14.65;;;9.52;;
66751;SDS011;53663;42.676;23.238;2022-11-18T02:25:17;14.73;;;9.50;;
66751;SDS011;53663;42.676;23.238;2022-11-18T02:30:19;17.95;;;10.15;;
66751;SDS011;53663;42.676;23.238;2022-11-18T02:32:49;15.73;;;10.55;;
66751;SDS011;53663;42.676;23.238;2022-11-18T02:35:28;17.70;;;11.30;;
66751;SDS011;53663;42.676;23.238;2022-11-18T02:38:04;18.67;;;10.85;;
66751;SDS011;53663;42.676;23.238;2022-11-18T02:40:38;19.67;;;10.85;;
66751;SDS011;53663;42.676;23.238;2022-11-18T02:43:12;17.88;;;10.48;;
66751;SDS011;53663;42.676;23.238;2022-11-18T02:45:48;17.75;;;10.60;;
66751;SDS011;53663;42.676;23.238;2022-11-18T02:48:16;16.55;;;9.52;;
66751;SDS011;53663;42.676;23.238;2022-11-18T02:50:44;18.77;;;10.40;;
66751;SDS011;53663;42.676;23.238;2022-11-18T02:53:14;18.00;;;10.00;;
66751;SDS011;53663;42.676;23.238;2022-11-18T02:55:43;17.77;;;11.20;;
66751;SDS011;53663;42.676;23.238;2022-11-18T02:58:10;19.80;;;10.98;;
66751;SDS011;53663;42.676;23.238;2022-11-18T03:00:37;16.52;;;10.60;;
66751;SDS011;53663;42.676;23.238;2022-11-18T03:06:08;14.82;;;9.45;;
66751;SDS011;53663;42.676;23.238;2022-11-18T03:08:48;17.80;;;10.50;;
66751;SDS011;53663;42.676;23.238;2022-11-18T03:11:23;17.25;;;10.70;;
66751;SDS011;53663;42.676;23.238;2022-11-18T03:14:08;17.73;;;10.75;;
66751;SDS011;53663;42.676;23.238;2022-11-18T03:17:31;16.98;;;11.15;;
66751;SDS011;53663;42.676;23.238;2022-11-18T03:28:28;25.75;;;14.57;;
66751;SDS011;53663;42.676;23.238;2022-11-18T03:31:02;20.23;;;13.57;;
66751;SDS011;53663;42.676;23.238;2022-11-18T03:33:37;19.80;;;13.57;;
66751;SDS011;53663;42.676;23.238;2022-11-18T03:36:10;24.13;;;14.07;;
66751;SDS011;53663;42.676;23.238;2022-11-18T03:38:38;25.17;;;14.68;;
66751;SDS011;53663;42.676;23.238;2022-11-18T03:41:10;25.52;;;14.55;;
66751;SDS011;53663;42.676;23.238;2022-11-18T03:43:39;26.63;;;16.27;;
66751;SDS011;53663;42.676;23.238;2022-11-18T03:48:37;23.63;;;14.32;;
66751;SDS011;53663;42.676;23.238;2022-11-18T03:51:08;29.15;;;14.98;;
66751;SDS011;53663;42.676;23.238;2022-11-18T03:53:38;25.70;;;14.57;;
66751;SDS011;53663;42.676;23.238;2022-11-18T03:56:10;29.20;;;15.85;;
66751;SDS011;53663;42.676;23.238;2022-11-18T04:01:25;28.95;;;16.23;;
66751;SDS011;53663;42.676;23.238;2022-11-18T04:03:57;40.50;;;16.45;;
66751;SDS011;53663;42.676;23.238;2022-11-18T04:06:25;25.27;;;15.13;;
66751;SDS011;53663;42.676;23.238;2022-11-18T04:09:01;28.58;;;16.30;;
66751;SDS011;53663;42.676;23.238;2022-11-18T04:11:42;86.18;;;17.80;;
66751;SDS011;53663;42.676;23.238;2022-11-18T04:14:29;60.70;;;16.60;;
66751;SDS011;53663;42.676;23.238;2022-11-18T04:16:57;35.53;;;14.95;;
66751;SDS011;53663;42.676;23.238;2022-11-18T04:19:22;32.90;;;13.95;;
66751;SDS011;53663;42.676;23.238;2022-11-18T04:21:48;118.30;;;14.32;;
66751;SDS011;53663;42.676;23.238;2022-11-18T04:24:14;158.45;;;16.27;;
66751;SDS011;53663;42.676;23.238;2022-11-18T04:26:40;208.95;;;18.42;;
66751;SDS011;53663;42.676;23.238;2022-11-18T04:29:05;110.15;;;17.23;;
66751;SDS011;53663;42.676;23.238;2022-11-18T04:31:31;139.38;;;16.75;;
66751;SDS011;53663;42.676;23.238;2022-11-18T04:33:57;75.68;;;17.58;;
66751;SDS011;53663;42.676;23.238;2022-11-18T04:36:22;153.43;;;16.75;;
66751;SDS011;53663;42.676;23.238;2022-11-18T04:38:48;88.78;;;15.50;;
66751;SDS011;53663;42.676;23.238;2022-11-18T04:41:13;150.30;;;16.55;;
66751;SDS011;53663;42.676;23.238;2022-11-18T04:43:39;93.75;;;15.43;;
66751;SDS011;53663;42.676;23.238;2022-11-18T04:46:05;61.80;;;15.98;;
66751;SDS011;53663;42.676;23.238;2022-11-18T04:48:31;59.85;;;16.33;;
66751;SDS011;53663;42.676;23.238;2022-11-18T04:50:56;97.35;;;17.33;;
66751;SDS011;53663;42.676;23.238;2022-11-18T04:53:22;58.67;;;16.45;;
66751;SDS011;53663;42.676;23.238;2022-11-18T04:55:47;53.25;;;16.67;;
66751;SDS011;53663;42.676;23.238;2022-11-18T04:58:13;32.08;;;15.95;;
66751;SDS011;53663;42.676;23.238;2022-11-18T05:00:38;70.00;;;19.50;;
66751;SDS011;53663;42.676;23.238;2022-11-18T05:03:04;44.53;;;16.23;;
66751;SDS011;53663;42.676;23.238;2022-11-18T05:05:29;163.55;;;20.25;;
66751;SDS011;53663;42.676;23.238;2022-11-18T05:07:55;57.05;;;18.33;;
66751;SDS011;53663;42.676;23.238;2022-11-18T05:10:20;194.98;;;19.75;;
66751;SDS011;53663;42.676;23.238;2022-11-18T05:12:46;58.28;;;18.20;;
66751;SDS011;53663;42.676;23.238;2022-11-18T05:15:15;318.45;;;22.00;;
66751;SDS011;53663;42.676;23.238;2022-11-18T05:17:41;48.28;;;18.90;;
66751;SDS011;53663;42.676;23.238;2022-11-18T05:20:07;108.30;;;19.92;;
66751;SDS011;53663;42.676;23.238;2022-11-18T05:22:33;391.17;;;20.92;;
66751;SDS011;53663;42.676;23.238;2022-11-18T05:24:58;256.02;;;22.42;;
66751;SDS011;53663;42.676;23.238;2022-11-18T05:27:24;474.77;;;23.65;;
66751;SDS011;53663;42.676;23.238;2022-11-18T05:29:49;371.90;;;19.58;;
66751;SDS011;53663;42.676;23.238;2022-11-18T05:32:15;402.05;;;21.17;;
66751;SDS011;53663;42.676;23.238;2022-11-18T05:34:41;164.55;;;17.70;;
66751;SDS011;53663;42.676;23.238;2022-11-18T05:37:06;212.32;;;19.00;;
66751;SDS011;53663;42.676;23.238;2022-11-18T05:39:32;400.13;;;21.80;;
66751;SDS011;53663;42.676;23.238;2022-11-18T05:41:59;329.98;;;20.98;;
66751;SDS011;53663;42.676;23.238;2022-11-18T05:44:44;349.75;;;23.52;;
66751;SDS011;53663;42.676;23.238;2022-11-18T05:47:09;348.70;;;22.98;;
66751;SDS011;53663;42.676;23.238;2022-11-18T05:49:35;158.07;;;17.38;;
66751;SDS011;53663;42.676;23.238;2022-11-18T05:52:01;314.60;;;19.92;;
66751;SDS011;53663;42.676;23.238;2022-11-18T05:54:26;287.67;;;20.42;;
66751;SDS011;53663;42.676;23.238;2022-11-18T05:56:52;167.60;;;19.85;;
66751;SDS011;53663;42.676;23.238;2022-11-18T05:59:18;143.73;;;18.65;;
66751;SDS011;53663;42.676;23.238;2022-11-18T06:01:44;133.68;;;20.58;;
66751;SDS011;53663;42.676;23.238;2022-11-18T06:06:44;94.10;;;17.05;;
66751;SDS011;53663;42.676;23.238;2022-11-18T06:09:13;113.70;;;18.33;;
66751;SDS011;53663;42.676;23.238;2022-11-18T06:11:46;94.95;;;16.70;;
66751;SDS011;53663;42.676;23.238;2022-11-18T06:14:27;81.63;;;18.45;;
66751;SDS011;53663;42.676;23.238;2022-11-18T06:17:07;66.25;;;16.33;;
66751;SDS011;53663;42.676;23.238;2022-11-18T06:19:35;32.08;;;15.55;;
66751;SDS011;53663;42.676;23.238;2022-11-18T06:22:02;48.33;;;16.23;;
66751;SDS011;53663;42.676;23.238;2022-11-18T06:24:28;26.67;;;14.55;;
66751;SDS011;53663;42.676;23.238;2022-11-18T06:26:54;46.13;;;16.00;;
66751;SDS011;53663;42.676;23.238;2022-11-18T06:29:20;97.13;;;17.80;;
66751;SDS011;53663;42.676;23.238;2022-11-18T06:31:46;105.70;;;19.10;;
66751;SDS011;53663;42.676;23.238;2022-11-18T06:34:11;230.75;;;23.88;;
66751;SDS011;53663;42.676;23.238;2022-11-18T06:36:37;301.15;;;25.30;;
66751;SDS011;53663;42.676;23.238;2022-11-18T06:39:03;110.68;;;21.70;;
66751;SDS011;53663;42.676;23.238;2022-11-18T06:41:29;203.45;;;24.27;;
66751;SDS011;53663;42.676;23.238;2022-11-18T06:43:55;207.35;;;23.27;;
66751;SDS011;53663;42.676;23.238;2022-11-18T06:46:21;119.55;;;20.90;;
66751;SDS011;53663;42.676;23.238;2022-11-18T06:49:05;187.88;;;22.17;;
66751;SDS011;53663;42.676;23.238;2022-11-18T06:51:30;122.35;;;22.98;;
66751;SDS011;53663;42.676;23.238;2022-11-18T06:53:56;140.55;;;19.77;;
66751;SDS011;53663;42.676;23.238;2022-11-18T06:56:22;235.95;;;21.27;;
66751;SDS011;53663;42.676;23.238;2022-11-18T06:58:51;252.85;;;23.83;;
66751;SDS011;53663;42.676;23.238;2022-11-18T07:03:46;203.35;;;22.95;;
66751;SDS011;53663;42.676;23.238;2022-11-18T07:06:13;236.45;;;29.63;;
66751;SDS011;53663;42.676;23.238;2022-11-18T07:08:40;190.10;;;29.20;;
66751;SDS011;53663;42.676;23.238;2022-11-18T07:11:06;162.75;;;28.58;;
66751;SDS011;53663;42.676;23.238;2022-11-18T07:13:35;207.25;;;27.80;;
66751;SDS011;53663;42.676;23.238;2022-11-18T07:16:07;134.85;;;25.73;;
66751;SDS011;53663;42.676;23.238;2022-11-18T07:18:35;129.68;;;21.27;;
66751;SDS011;53663;42.676;23.238;2022-11-18T07:21:06;189.93;;;21.92;;
66751;SDS011;53663;42.676;23.238;2022-11-18T07:23:53;83.28;;;21.80;;
66751;SDS011;53663;42.676;23.238;2022-11-18T07:26:19;141.63;;;23.13;;
66751;SDS011;53663;42.676;23.238;2022-11-18T07:28:45;115.63;;;25.33;;
66751;SDS011;53663;42.676;23.238;2022-11-18T07:31:12;174.05;;;26.50;;
66751;SDS011;53663;42.676;23.238;2022-11-18T07:33:40;65.28;;;24.23;;
66751;SDS011;53663;42.676;23.238;2022-11-18T07:36:07;126.60;;;26.98;;
66751;SDS011;53663;42.676;23.238;2022-11-18T07:38:34;153.77;;;27.30;;
66751;SDS011;53663;42.676;23.238;2022-11-18T07:41:07;147.75;;;26.05;;
66751;SDS011;53663;42.676;23.238;2022-11-18T07:43:35;131.40;;;23.55;;
66751;SDS011;53663;42.676;23.238;2022-11-18T07:48:46;74.20;;;22.63;;
66751;SDS011;53663;42.676;23.238;2022-11-18T07:51:13;282.25;;;24.88;;
66751;SDS011;53663;42.676;23.238;2022-11-18T07:53:40;103.43;;;21.92;;
66751;SDS011;53663;42.676;23.238;2022-11-18T07:56:07;122.72;;;25.05;;
66751;SDS011;53663;42.676;23.238;2022-11-18T07:58:33;117.55;;;26.00;;
66751;SDS011;53663;42.676;23.238;2022-11-18T08:01:12;107.57;;;26.38;;
66751;SDS011;53663;42.676;23.238;2022-11-18T08:03:40;170.00;;;29.17;;
66751;SDS011;53663;42.676;23.238;2022-11-18T08:06:06;218.77;;;28.13;;
66751;SDS011;53663;42.676;23.238;2022-11-18T08:08:33;90.78;;;27.75;;
66751;SDS011;53663;42.676;23.238;2022-11-18T08:11:00;280.70;;;30.05;;
66751;SDS011;53663;42.676;23.238;2022-11-18T08:13:27;262.58;;;29.70;;
66751;SDS011;53663;42.676;23.238;2022-11-18T08:15:53;121.18;;;27.52;;
66751;SDS011;53663;42.676;23.238;2022-11-18T08:18:20;281.05;;;30.45;;
66751;SDS011;53663;42.676;23.238;2022-11-18T08:20:46;116.18;;;28.73;;
66751;SDS011;53663;42.676;23.238;2022-11-18T08:23:12;219.75;;;27.85;;
66751;SDS011;53663;42.676;23.238;2022-11-18T08:25:39;128.52;;;27.70;;
66751;SDS011;53663;42.676;23.238;2022-11-18T08:28:05;126.45;;;30.33;;
66751;SDS011;53663;42.676;23.238;2022-11-18T08:30:31;116.78;;;25.13;;
66751;SDS011;53663;42.676;23.238;2022-11-18T08:32:58;164.63;;;25.25;;
66751;SDS011;53663;42.676;23.238;2022-11-18T08:35:24;93.13;;;25.63;;
66751;SDS011;53663;42.676;23.238;2022-11-18T08:37:51;142.02;;;23.48;;
66751;SDS011;53663;42.676;23.238;2022-11-18T08:40:17;88.18;;;23.90;;
66751;SDS011;53663;42.676;23.238;2022-11-18T08:42:42;77.90;;;25.38;;
66751;SDS011;53663;42.676;23.238;2022-11-18T08:45:08;91.90;;;24.88;;
66751;SDS011;53663;42.676;23.238;2022-11-18T08:47:34;85.82;;;27.10;;
66751;SDS011;53663;42.676;23.238;2022-11-18T08:50:01;92.05;;;26.60;;
66751;SDS011;53663;42.676;23.238;2022-11-18T08:52:28;93.65;;;25.73;;
66751;SDS011;53663;42.676;23.238;2022-11-18T08:54:54;124.72;;;26.95;;
66751;SDS011;53663;42.676;23.238;2022-11-18T08:57:19;102.13;;;22.50;;
66751;SDS011;53663;42.676;23.238;2022-11-18T08:59:45;99.10;;;24.60;;
66751;SDS011;53663;42.676;23.238;2022-11-18T09:02:14;66.95;;;25.05;;
66751;SDS011;53663;42.676;23.238;2022-11-18T09:04:41;86.70;;;26.42;;
66751;SDS011;53663;42.676;23.238;2022-11-18T09:07:06;153.38;;;29.73;;
66751;SDS011;53663;42.676;23.238;2022-11-18T09:09:32;186.43;;;28.60;;
66751;SDS011;53663;42.676;23.238;2022-11-18T09:11:57;74.22;;;28.90;;
66751;SDS011;53663;42.676;23.238;2022-11-18T09:14:23;100.80;;;30.83;;
66751;SDS011;53663;42.676;23.238;2022-11-18T09:16:49;75.63;;;30.52;;
66751;SDS011;53663;42.676;23.238;2022-11-18T09:19:15;53.55;;;26.05;;
66751;SDS011;53663;42.676;23.238;2022-11-18T09:21:41;44.92;;;23.23;;
66751;SDS011;53663;42.676;23.238;2022-11-18T09:24:06;44.70;;;24.95;;
66751;SDS011;53663;42.676;23.238;2022-11-18T09:26:32;45.70;;;23.92;;
66751;SDS011;53663;42.676;23.238;2022-11-18T09:28:58;40.55;;;19.88;;
66751;SDS011;53663;42.676;23.238;2022-11-18T09:31:24;29.10;;;16.40;;
66751;SDS011;53663;42.676;23.238;2022-11-18T09:33:49;30.75;;;17.05;;
66751;SDS011;53663;42.676;23.238;2022-11-18T09:36:16;39.67;;;17.38;;
66751;SDS011;53663;42.676;23.238;2022-11-18T09:38:45;28.17;;;16.55;;
66751;SDS011;53663;42.676;23.238;2022-11-18T09:49:02;25.58;;;14.73;;
66751;SDS011;53663;42.676;23.238;2022-11-18T09:51:39;24.92;;;12.48;;
66751;SDS011;53663;42.676;23.238;2022-11-18T09:54:10;22.45;;;12.68;;
66751;SDS011;53663;42.676;23.238;2022-11-18T09:56:48;24.88;;;12.52;;
66751;SDS011;53663;42.676;23.238;2022-11-18T09:59:16;23.48;;;11.77;;
66751;SDS011;53663;42.676;23.238;2022-11-18T10:01:44;24.30;;;12.43;;
66751;SDS011;53663;42.676;23.238;2022-11-18T10:04:12;27.88;;;14.60;;
66751;SDS011;53663;42.676;23.238;2022-11-18T10:23:57;25.02;;;14.43;;
66751;SDS011;53663;42.676;23.238;2022-11-18T10:26:32;27.38;;;16.25;;
66751;SDS011;53663;42.676;23.238;2022-11-18T10:29:03;33.85;;;18.60;;
66751;SDS011;53663;42.676;23.238;2022-11-18T10:32:07;31.48;;;17.30;;
66751;SDS011;53663;42.676;23.238;2022-11-18T10:34:28;28.05;;;17.25;;
66751;SDS011;53663;42.676;23.238;2022-11-18T10:37:01;27.08;;;16.67;;
66751;SDS011;53663;42.676;23.238;2022-11-18T10:39:28;27.63;;;16.77;;
66751;SDS011;53663;42.676;23.238;2022-11-18T10:42:06;35.38;;;17.55;;
66751;SDS011;53663;42.676;23.238;2022-11-18T10:44:41;33.75;;;17.17;;
66751;SDS011;53663;42.676;23.238;2022-11-18T10:49:40;33.15;;;20.38;;
66751;SDS011;53663;42.676;23.238;2022-11-18T10:54:36;37.63;;;20.08;;
66751;SDS011;53663;42.676;23.238;2022-11-18T10:57:11;42.38;;;21.48;;
66751;SDS011;53663;42.676;23.238;2022-11-18T10:59:47;42.65;;;21.10;;
66751;SDS011;53663;42.676;23.238;2022-11-18T11:02:19;47.28;;;20.38;;
66751;SDS011;53663;42.676;23.238;2022-11-18T11:04:46;37.72;;;21.27;;
66751;SDS011;53663;42.676;23.238;2022-11-18T11:07:14;40.42;;;21.45;;
66751;SDS011;53663;42.676;23.238;2022-11-18T11:12:36;49.22;;;20.45;;
66751;SDS011;53663;42.676;23.238;2022-11-18T11:17:53;34.95;;;19.20;;
66751;SDS011;53663;42.676;23.238;2022-11-18T11:20:41;47.08;;;19.10;;
66751;SDS011;53663;42.676;23.238;2022-11-18T11:23:08;48.63;;;22.05;;
66751;SDS011;53663;42.676;23.238;2022-11-18T11:31:42;50.40;;;24.95;;
66751;SDS011;53663;42.676;23.238;2022-11-18T11:33:40;39.85;;;20.52;;
66751;SDS011;53663;42.676;23.238;2022-11-18T11:52:44;30.02;;;14.98;;
66751;SDS011;53663;42.676;23.238;2022-11-18T11:55:21;44.97;;;20.48;;
66751;SDS011;53663;42.676;23.238;2022-11-18T11:58:03;26.20;;;12.77;;
66751;SDS011;53663;42.676;23.238;2022-11-18T12:00:43;43.97;;;19.17;;
66751;SDS011;53663;42.676;23.238;2022-11-18T12:03:41;32.83;;;18.95;;
66751;SDS011;53663;42.676;23.238;2022-11-18T12:06:10;28.27;;;15.23;;
66751;SDS011;53663;42.676;23.238;2022-11-18T12:08:36;25.90;;;13.30;;
66751;SDS011;53663;42.676;23.238;2022-11-18T12:16:51;6.55;;;2.80;;
66751;SDS011;53663;42.676;23.238;2022-11-18T12:19:15;6.88;;;2.22;;
66751;SDS011;53663;42.676;23.238;2022-11-18T12:26:43;5.00;;;1.90;;
66751;SDS011;53663;42.676;23.238;2022-11-18T12:31:45;5.38;;;2.70;;
66751;SDS011;53663;42.676;23.238;2022-11-18T12:34:45;13.27;;;6.50;;
66751;SDS011;53663;42.676;23.238;2022-11-18T12:48:25;4.13;;;2.17;;
66751;SDS011;53663;42.676;23.238;2022-11-18T12:50:56;2.75;;;1.67;;
66751;SDS011;53663;42.676;23.238;2022-11-18T12:55:59;6.32;;;3.13;;
66751;SDS011;53663;42.676;23.238;2022-11-18T12:58:33;8.30;;;1.98;;
66751;SDS011;53663;42.676;23.238;2022-11-18T13:01:03;5.35;;;1.65;;
66751;SDS011;53663;42.676;23.238;2022-11-18T13:03:34;4.82;;;1.67;;
66751;SDS011;53663;42.676;23.238;2022-11-18T13:06:01;5.22;;;2.35;;
66751;SDS011;53663;42.676;23.238;2022-11-18T13:08:30;3.55;;;1.67;;
66751;SDS011;53663;42.676;23.238;2022-11-18T13:11:01;5.18;;;1.83;;
66751;SDS011;53663;42.676;23.238;2022-11-18T13:13:51;6.22;;;2.83;;
66751;SDS011;53663;42.676;23.238;2022-11-18T13:16:36;3.83;;;1.40;;
66751;SDS011;53663;42.676;23.238;2022-11-18T13:19:21;5.00;;;1.80;;
66751;SDS011;53663;42.676;23.238;2022-11-18T13:21:52;4.53;;;1.83;;
66751;SDS011;53663;42.676;23.238;2022-11-18T13:24:42;3.15;;;1.83;;
66751;SDS011;53663;42.676;23.238;2022-11-18T13:27:09;5.50;;;1.85;;
66751;SDS011;53663;42.676;23.238;2022-11-18T13:29:44;3.25;;;1.80;;
66751;SDS011;53663;42.676;23.238;2022-11-18T13:32:26;3.30;;;1.88;;
66751;SDS011;53663;42.676;23.238;2022-11-18T13:34:54;7.55;;;3.28;;
66751;SDS011;53663;42.676;23.238;2022-11-18T13:37:25;4.00;;;2.03;;
66751;SDS011;53663;42.676;23.238;2022-11-18T13:39:53;1.58;;;1.35;;
66751;SDS011;53663;42.676;23.238;2022-11-18T13:42:24;3.85;;;1.50;;
66751;SDS011;53663;42.676;23.238;2022-11-18T13:44:52;6.03;;;1.75;;
66751;SDS011;53663;42.676;23.238;2022-11-18T13:56:01;2.25;;;1.40;;
66751;SDS011;53663;42.676;23.238;2022-11-18T14:01:02;2.30;;;1.25;;
66751;SDS011;53663;42.676;23.238;2022-11-18T14:03:34;4.72;;;2.42;;
66751;SDS011;53663;42.676;23.238;2022-11-18T14:14:34;2.88;;;1.70;;
66751;SDS011;53663;42.676;23.238;2022-11-18T14:19:47;4.05;;;1.75;;
66751;SDS011;53663;42.676;23.238;2022-11-18T14:25:01;5.50;;;1.70;;
66751;SDS011;53663;42.676;23.238;2022-11-18T14:27:48;3.55;;;2.00;;
66751;SDS011;53663;42.676;23.238;2022-11-18T14:30:25;1.90;;;1.45;;
66751;SDS011;53663;42.676;23.238;2022-11-18T14:35:36;5.93;;;3.60;;
66751;SDS011;53663;42.676;23.238;2022-11-18T14:38:15;5.67;;;1.60;;
66751;SDS011;53663;42.676;23.238;2022-11-18T14:41:00;17.38;;;5.82;;
66751;SDS011;53663;42.676;23.238;2022-11-18T14:43:28;3.30;;;1.50;;
66751;SDS011;53663;42.676;23.238;2022-11-18T14:46:01;4.55;;;1.85;;
66751;SDS011;53663;42.676;23.238;2022-11-18T14:48:29;3.47;;;1.33;;
66751;SDS011;53663;42.676;23.238;2022-11-18T14:50:56;3.55;;;1.40;;
66751;SDS011;53663;42.676;23.238;2022-11-18T14:53:22;3.80;;;1.90;;
66751;SDS011;53663;42.676;23.238;2022-11-18T14:55:48;5.05;;;2.25;;
66751;SDS011;53663;42.676;23.238;2022-11-18T14:58:15;3.00;;;1.30;;
66751;SDS011;53663;42.676;23.238;2022-11-18T15:00:43;6.75;;;1.80;;
66751;SDS011;53663;42.676;23.238;2022-11-18T15:03:09;6.70;;;1.92;;
66751;SDS011;53663;42.676;23.238;2022-11-18T15:05:35;5.57;;;1.80;;
66751;SDS011;53663;42.676;23.238;2022-11-18T15:08:01;5.45;;;2.83;;
66751;SDS011;53663;42.676;23.238;2022-11-18T15:10:27;3.35;;;2.08;;
66751;SDS011;53663;42.676;23.238;2022-11-18T15:12:52;4.75;;;1.60;;
66751;SDS011;53663;42.676;23.238;2022-11-18T15:15:18;3.63;;;1.50;;
66751;SDS011;53663;42.676;23.238;2022-11-18T15:17:43;2.25;;;1.73;;
66751;SDS011;53663;42.676;23.238;2022-11-18T15:20:11;7.35;;;2.45;;
66751;SDS011;53663;42.676;23.238;2022-11-18T15:22:38;4.35;;;2.55;;
66751;SDS011;53663;42.676;23.238;2022-11-18T15:25:04;6.63;;;3.00;;
66751;SDS011;53663;42.676;23.238;2022-11-18T15:27:30;4.72;;;2.25;;
66751;SDS011;53663;42.676;23.238;2022-11-18T15:29:56;7.05;;;2.20;;
66751;SDS011;53663;42.676;23.238;2022-11-18T15:32:21;5.30;;;2.10;;
66751;SDS011;53663;42.676;23.238;2022-11-18T15:34:47;5.47;;;2.83;;
66751;SDS011;53663;42.676;23.238;2022-11-18T15:37:12;4.60;;;2.30;;
66751;SDS011;53663;42.676;23.238;2022-11-18T15:39:38;4.78;;;2.25;;
66751;SDS011;53663;42.676;23.238;2022-11-18T15:42:03;3.95;;;2.13;;
66751;SDS011;53663;42.676;23.238;2022-11-18T15:44:29;6.88;;;3.22;;
66751;SDS011;53663;42.676;23.238;2022-11-18T15:46:55;5.70;;;2.88;;
66751;SDS011;53663;42.676;23.238;2022-11-18T15:49:21;6.15;;;3.25;;
66751;SDS011;53663;42.676;23.238;2022-11-18T15:51:47;4.32;;;2.10;;
66751;SDS011;53663;42.676;23.238;2022-11-18T15:54:12;5.18;;;2.90;;
66751;SDS011;53663;42.676;23.238;2022-11-18T15:56:38;8.07;;;2.30;;
66751;SDS011;53663;42.676;23.238;2022-11-18T15:59:09;4.68;;;2.60;;
66751;SDS011;53663;42.676;23.238;2022-11-18T16:01:37;10.82;;;5.15;;
66751;SDS011;53663;42.676;23.238;2022-11-18T16:04:05;3.22;;;2.22;;
66751;SDS011;53663;42.676;23.238;2022-11-18T16:06:32;5.60;;;2.85;;
66751;SDS011;53663;42.676;23.238;2022-11-18T16:08:58;3.13;;;1.90;;
66751;SDS011;53663;42.676;23.238;2022-11-18T16:11:23;3.17;;;1.80;;
66751;SDS011;53663;42.676;23.238;2022-11-18T16:14:09;2.92;;;2.00;;
66751;SDS011;53663;42.676;23.238;2022-11-18T16:16:36;6.57;;;2.15;;
66751;SDS011;53663;42.676;23.238;2022-11-18T16:19:04;6.03;;;2.35;;
66751;SDS011;53663;42.676;23.238;2022-11-18T16:21:32;4.97;;;1.90;;
66751;SDS011;53663;42.676;23.238;2022-11-18T16:24:00;7.40;;;2.35;;
66751;SDS011;53663;42.676;23.238;2022-11-18T16:26:28;3.97;;;1.88;;
66751;SDS011;53663;42.676;23.238;2022-11-18T16:28:57;4.13;;;2.08;;
66751;SDS011;53663;42.676;23.238;2022-11-18T16:31:23;5.70;;;2.15;;
66751;SDS011;53663;42.676;23.238;2022-11-18T16:34:12;3.40;;;2.47;;
66751;SDS011;53663;42.676;23.238;2022-11-18T16:36:40;9.43;;;2.75;;
66751;SDS011;53663;42.676;23.238;2022-11-18T16:39:11;6.18;;;2.05;;
66751;SDS011;53663;42.676;23.238;2022-11-18T16:44:05;4.57;;;2.20;;
66751;SDS011;53663;42.676;23.238;2022-11-18T16:46:33;11.35;;;2.30;;
66751;SDS011;53663;42.676;23.238;2022-11-18T16:49:00;9.05;;;3.03;;
66751;SDS011;53663;42.676;23.238;2022-11-18T16:51:26;5.63;;;3.05;;
66751;SDS011;53663;42.676;23.238;2022-11-18T16:53:55;4.95;;;2.47;;
66751;SDS011;53663;42.676;23.238;2022-11-18T16:56:23;8.13;;;2.70;;
66751;SDS011;53663;42.676;23.238;2022-11-18T16:58:54;5.68;;;2.63;;